Time;durP1;ratioP1;P1;durP2;ratioP2;P2;SDS_P1;SDS_P2;PMS_P1;PMS_P2;Temp;Humidity;BMP_temperature;BMP_pressure;BME280_temperature;BME280_humidity;BME280_pressure;Samples;Min_cycle;Max_cycle;Signal;HPM_P1;HPM_P2
2022/08/09 00:02:17;;;;;;;4.10;2.72;;;22.10;41.20;;;;;;5059531;28;20480;-44
2022/08/09 00:04:44;;;;;;;4.72;2.50;;;22.10;41.20;;;;;;5062372;28;20057;-42
2022/08/09 00:07:11;;;;;;;3.17;1.98;;;22.10;41.20;;;;;;5062931;28;20048;-41
2022/08/09 00:09:39;;;;;;;7.35;2.47;;;22.10;41.30;;;;;;5059164;28;20055;-41
2022/08/09 00:12:06;;;;;;;3.58;2.50;;;22.10;41.20;;;;;;5057530;28;20053;-43
2022/08/09 00:14:35;;;;;;;3.80;2.22;;;22.10;41.20;;;;;;5056795;28;20053;-43
2022/08/09 00:17:03;;;;;;;4.15;2.28;;;22.10;41.30;;;;;;5057504;28;20052;-42
2022/08/09 00:19:30;;;;;;;4.07;2.70;;;22.00;41.30;;;;;;5058373;28;20052;-42
2022/08/09 00:21:57;;;;;;;3.83;2.42;;;22.00;41.40;;;;;;5057031;28;20053;-42
2022/08/09 00:24:25;;;;;;;6.57;2.78;;;22.00;41.40;;;;;;5056141;28;20061;-40
2022/08/09 00:26:52;;;;;;;3.47;2.33;;;22.00;41.50;;;;;;5058689;28;20412;-43
2022/08/09 00:29:19;;;;;;;14.35;2.65;;;22.00;41.50;;;;;;5061382;28;20052;-42
2022/08/09 00:31:48;;;;;;;4.32;2.67;;;21.90;41.40;;;;;;5053392;28;20061;-42
2022/08/09 00:34:15;;;;;;;3.33;2.20;;;21.90;41.60;;;;;;5061065;28;20547;-45
2022/08/09 00:36:42;;;;;;;3.03;2.30;;;21.90;41.60;;;;;;5061948;28;20053;-44
2022/08/09 00:39:10;;;;;;;3.97;2.90;;;21.90;41.90;;;;;;5060833;28;20053;-43
2022/08/09 00:41:38;;;;;;;3.25;2.33;;;21.90;41.80;;;;;;5053617;28;20063;-43
2022/08/09 00:44:05;;;;;;;5.30;2.45;;;21.80;41.70;;;;;;5057058;28;20052;-40
2022/08/09 00:46:32;;;;;;;3.63;2.35;;;21.80;41.80;;;;;;5054412;28;20056;-43
2022/08/09 00:49:00;;;;;;;4.72;2.70;;;21.80;41.80;;;;;;5058812;28;20049;-41
2022/08/09 00:51:28;;;;;;;5.00;2.47;;;21.80;42.10;;;;;;5058917;28;20056;-45
2022/08/09 00:53:55;;;;;;;4.25;2.55;;;21.80;42.30;;;;;;5062463;28;20056;-42
2022/08/09 00:56:22;;;;;;;4.10;2.70;;;21.70;42.50;;;;;;5061730;28;20064;-41
2022/08/09 00:58:50;;;;;;;3.42;2.53;;;21.70;42.40;;;;;;5058220;28;20048;-43
2022/08/09 01:01:21;;;;;;;3.10;2.47;;;21.70;42.50;;;;;;5048488;28;20423;-44
2022/08/09 01:03:54;;;;;;;4.50;2.78;;;21.70;42.70;;;;;;5057769;28;20052;-42
2022/08/09 01:06:31;;;;;;;3.83;2.83;;;21.60;42.60;;;;;;5063279;28;20072;-41
2022/08/09 01:09:08;;;;;;;4.22;2.78;;;21.60;42.50;;;;;;5061408;28;20048;-45
2022/08/09 01:11:44;;;;;;;6.22;2.83;;;21.60;42.50;;;;;;5056851;28;20075;-41
2022/08/09 01:14:15;;;;;;;4.00;2.90;;;21.60;42.60;;;;;;5060240;28;20048;-43
2022/08/09 01:16:45;;;;;;;4.88;3.22;;;21.50;42.50;;;;;;5059528;28;20048;-46
2022/08/09 01:19:27;;;;;;;5.70;2.55;;;21.50;42.70;;;;;;5062857;28;20424;-42
2022/08/09 01:22:20;;;;;;;3.92;3.08;;;21.50;42.80;;;;;;5057345;28;20978;-44
2022/08/09 01:24:57;;;;;;;3.92;3.10;;;21.40;43.10;;;;;;5055076;28;20048;-40
2022/08/09 01:27:27;;;;;;;3.97;3.17;;;21.40;43.00;;;;;;5061838;28;20049;-42
2022/08/09 01:30:00;;;;;;;4.05;2.72;;;21.30;42.80;;;;;;5055669;28;20071;-45
2022/08/09 01:32:33;;;;;;;3.53;2.67;;;21.30;43.20;;;;;;5056622;28;20053;-41
2022/08/09 01:35:04;;;;;;;4.43;3.07;;;21.20;43.10;;;;;;5053510;28;20044;-43
2022/08/09 01:37:33;;;;;;;4.78;3.05;;;21.20;43.20;;;;;;5058233;28;20060;-42
2022/08/09 01:40:02;;;;;;;4.22;2.90;;;21.10;43.30;;;;;;5044630;28;20053;-41
2022/08/09 01:42:33;;;;;;;4.32;3.30;;;21.10;43.40;;;;;;5053356;28;20067;-47
2022/08/09 01:45:03;;;;;;;4.70;3.13;;;21.00;43.60;;;;;;5055887;28;20056;-43
2022/08/09 01:47:32;;;;;;;6.03;3.35;;;21.00;43.60;;;;;;5054974;28;20061;-40
2022/08/09 01:50:02;;;;;;;5.25;2.90;;;21.00;43.70;;;;;;5053094;28;20064;-42
2022/08/09 01:52:31;;;;;;;5.40;3.30;;;20.90;43.80;;;;;;5060421;28;20052;-41
2022/08/09 01:55:00;;;;;;;3.92;3.22;;;20.90;43.90;;;;;;5050894;28;20470;-41
2022/08/09 01:57:36;;;;;;;3.95;2.92;;;20.80;43.90;;;;;;5058293;28;20099;-41
2022/08/09 02:00:07;;;;;;;8.02;3.13;;;20.80;44.50;;;;;;5052908;28;20415;-42
2022/08/09 02:02:38;;;;;;;4.60;2.85;;;20.80;44.10;;;;;;5059062;28;20056;-43
2022/08/09 02:05:09;;;;;;;5.15;3.40;;;20.70;44.00;;;;;;5056443;28;20428;-40
2022/08/09 02:07:41;;;;;;;4.47;3.03;;;20.60;44.10;;;;;;5059687;28;20056;-42
2022/08/09 02:10:13;;;;;;;4.78;3.30;;;20.60;44.30;;;;;;5052279;28;20126;-45
2022/08/09 02:12:42;;;;;;;4.38;3.17;;;20.60;44.40;;;;;;5057088;28;20060;-40
2022/08/09 02:15:12;;;;;;;5.25;3.38;;;20.60;44.50;;;;;;5057227;28;20056;-42
2022/08/09 02:17:41;;;;;;;4.45;3.35;;;20.60;44.70;;;;;;5059246;28;20056;-41
2022/08/09 02:20:09;;;;;;;4.72;2.95;;;20.50;44.70;;;;;;5054667;28;20072;-43
2022/08/09 02:22:39;;;;;;;5.50;3.50;;;20.50;44.80;;;;;;5058605;28;20061;-42
2022/08/09 02:25:12;;;;;;;5.22;3.53;;;20.40;44.90;;;;;;5060444;28;20056;-42
2022/08/09 02:27:45;;;;;;;4.07;3.15;;;20.40;45.00;;;;;;5059761;28;20057;-42
2022/08/09 02:30:12;;;;;;;12.25;4.30;;;20.40;45.00;;;;;;5051442;28;20072;-44
2022/08/09 02:32:45;;;;;;;4.63;3.17;;;20.40;45.10;;;;;;5056362;28;20056;-42
2022/08/09 02:35:18;;;;;;;3.05;2.70;;;20.30;45.30;;;;;;5058152;28;20061;-44
2022/08/09 02:37:49;;;;;;;4.93;3.47;;;20.40;45.30;;;;;;5057523;28;20059;-41
2022/08/09 02:40:18;;;;;;;5.00;3.08;;;20.30;45.40;;;;;;5050606;28;20056;-40
2022/08/09 02:42:50;;;;;;;6.22;3.65;;;20.30;45.50;;;;;;5054083;28;20056;-41
2022/08/09 02:45:23;;;;;;;5.60;3.42;;;20.30;45.60;;;;;;5055340;28;20053;-41
2022/08/09 02:47:53;;;;;;;6.20;3.72;;;20.20;45.60;;;;;;5057738;28;20049;-42
2022/08/09 02:50:25;;;;;;;4.72;3.22;;;20.20;45.60;;;;;;5053356;28;20055;-41
2022/08/09 02:52:56;;;;;;;5.68;3.90;;;20.20;45.60;;;;;;5055563;28;20045;-43
2022/08/09 02:55:26;;;;;;;4.20;3.65;;;20.20;45.70;;;;;;5058982;28;20488;-41
2022/08/09 02:57:55;;;;;;;6.07;3.72;;;20.10;45.80;;;;;;5058302;28;20044;-41
2022/08/09 03:00:24;;;;;;;5.75;3.35;;;20.10;45.90;;;;;;5051257;28;20055;-44
2022/08/09 03:02:54;;;;;;;4.00;3.33;;;20.10;45.80;;;;;;5056465;28;20378;-43
2022/08/09 03:05:23;;;;;;;5.72;3.47;;;20.00;45.90;;;;;;5057430;28;20060;-44
2022/08/09 03:07:51;;;;;;;5.63;3.70;;;20.00;46.00;;;;;;5060927;28;20504;-43
2022/08/09 03:10:20;;;;;;;5.10;3.60;;;19.90;46.00;;;;;;5056267;28;20063;-45
2022/08/09 03:12:49;;;;;;;3.33;3.03;;;19.90;46.00;;;;;;5062598;28;20056;-41
2022/08/09 03:15:19;;;;;;;7.15;3.97;;;19.90;46.10;;;;;;5062715;28;20053;-41
2022/08/09 03:17:47;;;;;;;4.72;3.60;;;19.90;46.20;;;;;;5063318;28;20504;-42
2022/08/09 03:20:15;;;;;;;6.70;3.38;;;19.90;46.30;;;;;;5061000;28;20063;-42
2022/08/09 03:22:45;;;;;;;5.45;3.40;;;19.90;46.40;;;;;;5057568;28;20452;-42
2022/08/09 03:25:13;;;;;;;6.70;3.53;;;19.80;46.40;;;;;;5057380;28;20055;-44
2022/08/09 03:27:42;;;;;;;4.22;3.28;;;19.80;46.30;;;;;;5057682;28;20056;-46
2022/08/09 03:30:12;;;;;;;5.80;3.45;;;19.80;46.30;;;;;;5056622;28;20055;-44
2022/08/09 03:32:40;;;;;;;5.43;3.22;;;19.70;46.40;;;;;;5056655;28;20431;-41
2022/08/09 03:35:10;;;;;;;6.90;3.75;;;19.70;46.30;;;;;;5058516;28;20510;-42
2022/08/09 03:37:37;;;;;;;4.78;3.83;;;19.70;46.40;;;;;;5063356;28;20052;-41
2022/08/09 03:40:05;;;;;;;6.82;3.95;;;19.60;46.40;;;;;;5054660;28;20049;-40
2022/08/09 03:42:33;;;;;;;5.65;4.07;;;19.60;46.70;;;;;;5059311;28;20056;-43
2022/08/09 03:45:00;;;;;;;8.30;3.85;;;19.50;46.60;;;;;;5056904;28;20048;-42
2022/08/09 03:47:27;;;;;;;4.78;3.65;;;19.50;46.60;;;;;;5053011;28;20399;-40
2022/08/09 03:49:57;;;;;;;8.07;3.95;;;19.40;46.70;;;;;;5057301;28;20063;-45
2022/08/09 03:52:26;;;;;;;5.45;4.18;;;19.30;47.00;;;;;;5061826;28;20964;-40
2022/08/09 03:54:54;;;;;;;5.47;3.90;;;19.30;47.10;;;;;;5062709;28;20495;-41
2022/08/09 03:57:22;;;;;;;6.13;3.88;;;19.20;47.10;;;;;;5058149;28;20060;-44
2022/08/09 03:59:51;;;;;;;5.78;3.78;;;19.20;47.20;;;;;;5052623;28;20060;-41
2022/08/09 04:02:19;;;;;;;6.82;4.00;;;19.20;47.40;;;;;;5060616;28;20053;-43
2022/08/09 04:04:46;;;;;;;5.28;3.90;;;19.20;47.50;;;;;;5056646;28;20056;-43
2022/08/09 04:07:16;;;;;;;4.47;3.33;;;19.10;47.50;;;;;;5053372;28;20061;-45
2022/08/09 04:09:43;;;;;;;5.07;3.85;;;19.10;47.60;;;;;;5061133;28;20507;-43
2022/08/09 04:12:35;;;;;;;4.93;3.83;;;19.10;47.70;;;;;;5057243;28;21129;-40
2022/08/09 04:15:03;;;;;;;4.05;3.65;;;19.10;47.90;;;;;;5062521;28;20053;-43
2022/08/09 04:17:30;;;;;;;6.75;4.15;;;19.10;47.80;;;;;;5051780;28;20052;-42
2022/08/09 04:19:57;;;;;;;4.82;3.78;;;19.10;47.90;;;;;;5058399;28;20064;-40
2022/08/09 04:22:26;;;;;;;4.78;3.75;;;19.10;47.90;;;;;;5063234;28;20048;-41
2022/08/09 04:24:53;;;;;;;6.43;4.28;;;19.10;48.00;;;;;;5061832;28;20440;-44
2022/08/09 04:27:20;;;;;;;5.65;3.80;;;19.10;48.10;;;;;;5056501;28;20061;-44
2022/08/09 04:29:48;;;;;;;8.02;5.03;;;19.00;48.00;;;;;;5046834;28;20661;-40
2022/08/09 04:32:15;;;;;;;9.02;4.45;;;19.00;48.00;;;;;;5055544;28;20052;-44
2022/08/09 04:34:42;;;;;;;7.35;4.47;;;19.00;48.00;;;;;;5063132;28;20060;-42
2022/08/09 04:37:09;;;;;;;11.32;5.38;;;19.00;48.20;;;;;;5063526;28;20056;-43
2022/08/09 04:39:40;;;;;;;11.57;5.60;;;18.90;48.30;;;;;;5054155;28;20061;-44
2022/08/09 04:42:08;;;;;;;11.55;4.90;;;18.90;48.40;;;;;;5060161;28;20056;-41
2022/08/09 04:44:35;;;;;;;8.23;4.32;;;18.90;48.40;;;;;;5058945;28;20048;-41
2022/08/09 04:47:02;;;;;;;9.90;5.47;;;18.80;48.40;;;;;;5057756;28;20056;-41
2022/08/09 04:49:35;;;;;;;8.27;5.30;;;18.70;48.70;;;;;;5060585;28;20048;-41
2022/08/09 04:52:04;;;;;;;5.03;4.00;;;18.60;48.80;;;;;;5059637;28;20049;-45
2022/08/09 04:54:31;;;;;;;5.57;4.18;;;18.60;48.90;;;;;;5051612;28;20490;-40
2022/08/09 04:57:00;;;;;;;8.25;4.75;;;18.60;49.00;;;;;;5059534;28;20060;-43
2022/08/09 04:59:27;;;;;;;6.18;4.38;;;18.50;49.20;;;;;;5054076;28;20052;-43
2022/08/09 05:01:54;;;;;;;4.80;3.95;;;18.50;49.30;;;;;;5060174;28;20048;-42
2022/08/09 05:04:21;;;;;;;4.72;3.60;;;18.60;49.50;;;;;;5056859;28;20048;-43
2022/08/09 05:06:48;;;;;;;7.68;4.00;;;18.60;49.60;;;;;;5057610;28;20476;-45
2022/08/09 05:09:16;;;;;;;6.65;4.00;;;18.60;49.60;;;;;;5060909;28;20056;-43
2022/08/09 05:11:43;;;;;;;5.57;4.20;;;18.60;49.70;;;;;;4997982;28;20056;-41
2022/08/09 05:14:11;;;;;;;5.53;4.05;;;18.70;49.90;;;;;;5013465;28;20053;-42
2022/08/09 05:16:39;;;;;;;4.35;3.80;;;18.70;50.00;;;;;;5020253;28;20061;-45
2022/08/09 05:19:06;;;;;;;6.97;3.90;;;18.70;50.00;;;;;;5019500;28;20062;-44
2022/08/09 05:21:33;;;;;;;4.47;3.78;;;18.80;50.10;;;;;;5019603;28;20057;-41
2022/08/09 05:24:00;;;;;;;5.53;4.00;;;18.80;50.10;;;;;;5014133;28;20050;-44
2022/08/09 05:26:27;;;;;;;5.43;3.67;;;18.90;50.20;;;;;;5020542;28;20057;-41
2022/08/09 05:28:55;;;;;;;5.07;3.70;;;18.90;50.20;;;;;;5021356;28;20065;-42
2022/08/09 05:31:23;;;;;;;8.35;3.63;;;18.90;50.30;;;;;;5015144;28;20053;-45
2022/08/09 05:33:50;;;;;;;8.90;4.10;;;19.00;50.40;;;;;;5020151;28;20062;-43
2022/08/09 05:36:18;;;;;;;7.00;3.88;;;19.00;50.50;;;;;;5020610;28;20064;-42
2022/08/09 05:38:45;;;;;;;5.00;3.50;;;19.00;50.40;;;;;;5013121;28;20049;-41
2022/08/09 05:41:12;;;;;;;7.32;3.60;;;19.00;50.50;;;;;;5017489;28;20512;-41
2022/08/09 05:43:40;;;;;;;5.85;3.58;;;19.10;50.80;;;;;;5019370;28;20053;-40
2022/08/09 05:46:07;;;;;;;5.28;3.88;;;19.10;50.80;;;;;;5016836;28;20508;-42
2022/08/09 05:48:35;;;;;;;4.30;3.55;;;19.10;51.30;;;;;;5018733;28;20057;-43
2022/08/09 05:51:03;;;;;;;4.47;3.90;;;19.20;51.00;;;;;;5016079;28;20061;-42
2022/08/09 05:53:30;;;;;;;5.82;3.92;;;19.30;51.00;;;;;;5018537;28;20053;-40
2022/08/09 05:55:57;;;;;;;7.93;4.63;;;19.30;51.00;;;;;;5016586;28;20085;-44
2022/08/09 05:58:24;;;;;;;6.63;3.95;;;19.30;51.00;;;;;;5015001;28;20068;-43
2022/08/09 06:00:52;;;;;;;6.38;3.55;;;19.40;51.00;;;;;;5012387;28;20062;-41
2022/08/09 06:03:19;;;;;;;6.57;4.00;;;19.40;51.10;;;;;;5009564;28;20968;-42
2022/08/09 06:05:48;;;;;;;8.30;4.35;;;19.50;51.20;;;;;;5020131;28;20064;-43
2022/08/09 06:08:16;;;;;;;11.90;4.10;;;19.60;51.50;;;;;;5018322;28;20049;-42
2022/08/09 06:10:44;;;;;;;8.68;4.18;;;19.60;50.90;;;;;;5014060;28;20057;-43
2022/08/09 06:13:13;;;;;;;5.07;3.38;;;19.70;50.40;;;;;;5021304;28;20492;-42
2022/08/09 06:15:40;;;;;;;7.85;4.20;;;19.70;49.90;;;;;;5019803;28;20481;-45
2022/08/09 06:18:07;;;;;;;4.43;2.97;;;19.70;49.90;;;;;;5018489;28;20052;-42
2022/08/09 06:20:34;;;;;;;4.90;3.75;;;19.80;50.10;;;;;;5014158;28;20770;-40
2022/08/09 06:23:03;;;;;;;5.18;3.63;;;19.90;50.50;;;;;;5013610;28;20052;-42
2022/08/09 06:25:30;;;;;;;9.43;4.40;;;19.90;50.70;;;;;;5018528;28;20058;-41
2022/08/09 06:27:57;;;;;;;5.78;3.97;;;20.00;50.80;;;;;;5020137;28;20060;-42
2022/08/09 06:30:25;;;;;;;10.98;4.65;;;20.00;50.90;;;;;;5015665;28;20060;-42
2022/08/09 06:32:52;;;;;;;8.25;4.78;;;20.10;50.80;;;;;;5020405;28;20053;-44
2022/08/09 06:35:20;;;;;;;5.68;4.00;;;20.10;50.80;;;;;;5014424;28;20068;-43
2022/08/09 06:37:47;;;;;;;7.72;4.35;;;20.20;50.10;;;;;;5019256;28;20045;-40
2022/08/09 06:40:17;;;;;;;6.68;4.68;;;20.20;49.90;;;;;;5014674;28;20056;-41
2022/08/09 06:42:44;;;;;;;12.50;4.90;;;20.30;50.00;;;;;;5015081;28;20049;-44
2022/08/09 06:45:11;;;;;;;6.70;4.30;;;20.30;49.80;;;;;;5024188;28;20076;-43
2022/08/09 06:47:38;;;;;;;13.93;4.32;;;20.30;49.30;;;;;;5024111;28;20073;-41
2022/08/09 06:50:07;;;;;;;4.80;3.40;;;20.40;48.90;;;;;;5021980;28;20054;-40
2022/08/09 06:52:35;;;;;;;6.82;4.05;;;20.40;48.70;;;;;;5025885;28;20057;-43
2022/08/09 06:55:02;;;;;;;5.05;3.17;;;20.50;48.40;;;;;;5024988;28;20057;-40
2022/08/09 06:57:30;;;;;;;5.45;3.50;;;20.50;48.40;;;;;;5023560;28;20060;-44
2022/08/09 06:59:58;;;;;;;8.45;3.75;;;20.50;48.60;;;;;;5010815;28;20739;-40
2022/08/09 07:02:25;;;;;;;5.60;3.33;;;20.50;48.50;;;;;;5021272;28;20064;-41
2022/08/09 07:04:52;;;;;;;11.23;3.60;;;20.60;48.50;;;;;;5021008;28;20053;-40
2022/08/09 07:07:19;;;;;;;7.40;3.63;;;20.60;48.20;;;;;;5023446;28;20053;-42
2022/08/09 07:09:46;;;;;;;4.93;3.50;;;20.70;48.00;;;;;;5020882;28;20053;-43
2022/08/09 07:12:13;;;;;;;6.18;4.07;;;20.70;48.10;;;;;;5021816;28;20061;-42
2022/08/09 07:14:42;;;;;;;3.03;2.67;;;20.80;48.20;;;;;;5022076;28;20504;-41
2022/08/09 07:17:09;;;;;;;5.68;3.10;;;20.90;48.10;;;;;;5025979;28;20061;-44
2022/08/09 07:19:36;;;;;;;5.28;3.55;;;20.90;48.30;;;;;;5020548;28;20061;-43
2022/08/09 07:22:04;;;;;;;8.18;3.58;;;21.00;48.30;;;;;;5018327;28;20090;-43
2022/08/09 07:24:31;;;;;;;6.35;3.47;;;21.10;48.10;;;;;;5019671;28;20523;-45
2022/08/09 07:26:59;;;;;;;7.72;4.20;;;21.10;47.70;;;;;;5021305;28;20054;-42
2022/08/09 07:29:27;;;;;;;4.63;3.50;;;21.20;47.60;;;;;;5017946;28;20053;-46
2022/08/09 07:31:56;;;;;;;12.32;3.92;;;21.20;47.60;;;;;;5017522;28;20531;-43
2022/08/09 07:34:23;;;;;;;6.15;3.50;;;21.30;47.30;;;;;;5018881;28;20412;-42
2022/08/09 07:36:51;;;;;;;6.65;3.25;;;21.40;47.50;;;;;;5024772;28;20045;-43
2022/08/09 07:39:18;;;;;;;5.05;3.60;;;21.40;47.50;;;;;;5022261;28;20056;-42
2022/08/09 07:41:45;;;;;;;7.85;3.30;;;21.50;47.30;;;;;;5020366;28;20053;-41
2022/08/09 07:44:12;;;;;;;8.52;3.50;;;21.50;47.00;;;;;;5018495;28;20408;-42
2022/08/09 07:46:40;;;;;;;9.25;3.90;;;21.60;47.10;;;;;;5015434;28;20065;-44
2022/08/09 07:49:08;;;;;;;3.25;2.80;;;21.70;46.60;;;;;;5018166;28;20073;-41
2022/08/09 07:51:36;;;;;;;3.33;2.55;;;21.70;46.70;;;;;;5013993;28;20053;-46
2022/08/09 07:54:03;;;;;;;4.57;3.08;;;21.80;46.80;;;;;;5018955;28;20412;-41
2022/08/09 07:56:32;;;;;;;6.07;3.33;;;21.90;46.60;;;;;;5022879;28;20056;-42
2022/08/09 07:58:59;;;;;;;4.03;2.80;;;21.90;46.40;;;;;;5015787;28;20049;-44
2022/08/09 08:01:27;;;;;;;7.53;3.22;;;22.00;46.40;;;;;;5013834;28;20063;-48
2022/08/09 08:03:54;;;;;;;6.10;3.55;;;22.10;46.80;;;;;;5014040;28;20128;-43
2022/08/09 08:06:22;;;;;;;9.13;3.88;;;22.10;46.20;;;;;;5015023;28;20172;-44
2022/08/09 08:08:50;;;;;;;4.65;3.25;;;22.20;45.60;;;;;;5019063;28;20065;-47
2022/08/09 08:11:17;;;;;;;6.65;3.63;;;22.20;45.30;;;;;;5016026;28;20057;-45
2022/08/09 08:13:44;;;;;;;5.90;2.95;;;22.30;45.30;;;;;;5018155;28;20064;-44
2022/08/09 08:16:12;;;;;;;4.63;3.38;;;22.40;45.20;;;;;;5020578;28;20080;-46
2022/08/09 08:18:39;;;;;;;4.70;2.95;;;22.50;45.20;;;;;;5022879;28;20053;-44
2022/08/09 08:21:06;;;;;;;6.70;3.55;;;22.50;45.30;;;;;;5014154;28;20424;-47
2022/08/09 08:23:35;;;;;;;8.82;3.42;;;22.70;45.40;;;;;;5011508;28;20054;-47
2022/08/09 08:26:02;;;;;;;7.97;3.30;;;22.70;44.50;;;;;;5018317;28;20057;-44
2022/08/09 08:28:29;;;;;;;10.80;3.30;;;22.80;44.00;;;;;;5017279;28;20057;-43
2022/08/09 08:30:56;;;;;;;6.85;3.10;;;22.90;43.60;;;;;;5011684;28;20509;-45
2022/08/09 08:33:24;;;;;;;7.05;3.28;;;23.00;43.60;;;;;;5019549;28;20068;-46
2022/08/09 08:35:52;;;;;;;4.68;2.95;;;23.10;43.40;;;;;;5021058;28;20053;-44
2022/08/09 08:38:19;;;;;;;5.97;3.22;;;23.20;43.40;;;;;;5021650;28;20060;-45
2022/08/09 08:40:48;;;;;;;6.60;3.13;;;23.30;44.10;;;;;;5012074;28;20497;-45
2022/08/09 08:43:16;;;;;;;7.63;4.00;;;23.40;43.50;;;;;;5018543;28;20393;-45
2022/08/09 08:45:51;;;;;;;8.15;2.90;;;23.50;42.90;;;;;;5015841;28;20049;-44
2022/08/09 08:48:20;;;;;;;6.32;3.05;;;23.50;42.80;;;;;;5023154;28;20501;-47
2022/08/09 08:50:49;;;;;;;5.20;3.28;;;23.60;43.10;;;;;;5015973;28;20056;-50
2022/08/09 08:53:17;;;;;;;3.38;2.55;;;23.70;42.40;;;;;;5019174;28;20068;-46
2022/08/09 08:55:44;;;;;;;4.95;3.17;;;23.70;42.30;;;;;;5021286;28;20408;-45
2022/08/09 08:58:13;;;;;;;6.00;2.83;;;23.80;42.30;;;;;;5017328;28;20060;-45
2022/08/09 09:00:41;;;;;;;8.27;3.55;;;23.90;42.00;;;;;;5010264;28;20509;-48
2022/08/09 09:03:10;;;;;;;7.72;3.33;;;24.00;41.80;;;;;;5015216;28;20394;-46
2022/08/09 09:05:38;;;;;;;7.10;3.25;;;24.00;41.80;;;;;;5020435;28;20053;-48
2022/08/09 09:08:07;;;;;;;6.30;3.13;;;24.10;41.20;;;;;;5023192;28;20056;-45
2022/08/09 09:10:35;;;;;;;5.75;3.20;;;24.20;41.60;;;;;;5018894;28;20053;-47
2022/08/09 09:13:03;;;;;;;6.10;3.15;;;24.20;41.30;;;;;;5014009;28;20053;-45
2022/08/09 09:15:31;;;;;;;5.68;3.40;;;24.30;41.00;;;;;;5018471;28;20428;-44
2022/08/09 09:17:59;;;;;;;4.65;2.95;;;24.30;41.30;;;;;;5022065;28;20061;-47
2022/08/09 09:20:26;;;;;;;9.27;2.92;;;24.40;41.00;;;;;;5017370;28;20050;-49
2022/08/09 09:22:56;;;;;;;3.70;2.70;;;24.40;40.90;;;;;;5020538;28;20053;-47
2022/08/09 09:25:35;;;;;;;9.60;3.25;;;24.50;40.80;;;;;;5017356;28;20073;-50
2022/08/09 09:28:03;;;;;;;5.88;3.00;;;24.60;40.80;;;;;;5019879;28;20072;-46
2022/08/09 09:30:33;;;;;;;5.47;3.13;;;24.60;40.70;;;;;;5011859;28;20056;-46
2022/08/09 09:33:09;;;;;;;3.30;2.72;;;24.70;40.20;;;;;;5021406;28;20409;-45
2022/08/09 09:35:52;;;;;;;8.10;3.38;;;24.80;40.30;;;;;;5020484;28;20484;-47
2022/08/09 09:38:21;;;;;;;5.07;2.60;;;24.80;40.00;;;;;;5012843;28;20056;-48
2022/08/09 09:40:49;;;;;;;6.65;3.10;;;25.00;40.40;;;;;;5015906;28;20408;-51
2022/08/09 09:43:20;;;;;;;5.15;2.67;;;25.00;39.40;;;;;;5015904;28;20045;-50
2022/08/09 09:45:51;;;;;;;5.05;3.00;;;25.10;39.60;;;;;;5018272;28;20657;-44
2022/08/09 09:48:20;;;;;;;5.53;3.20;;;25.10;40.00;;;;;;5019903;28;20072;-55
2022/08/09 09:50:49;;;;;;;7.20;2.97;;;25.10;39.90;;;;;;5017023;28;20068;-48
2022/08/09 09:53:18;;;;;;;5.72;3.08;;;25.20;39.80;;;;;;5020542;28;20069;-48
2022/08/09 09:55:57;;;;;;;6.85;2.72;;;25.20;40.00;;;;;;5014581;28;20053;-45
2022/08/09 09:58:42;;;;;;;6.03;2.95;;;25.30;39.80;;;;;;5021110;28;20069;-45
2022/08/09 10:01:19;;;;;;;7.63;2.70;;;25.40;39.60;;;;;;5017793;28;20056;-44
2022/08/09 10:03:47;;;;;;;3.08;2.67;;;25.50;39.20;;;;;;5021032;28;20056;-46
2022/08/09 10:06:15;;;;;;;6.57;3.05;;;25.60;39.20;;;;;;5022089;28;20049;-50
2022/08/09 10:08:45;;;;;;;3.80;2.75;;;25.60;39.10;;;;;;5015859;28;20062;-48
2022/08/09 10:11:20;;;;;;;4.55;2.58;;;25.70;39.10;;;;;;5010669;28;20061;-44
2022/08/09 10:13:48;;;;;;;5.38;2.40;;;25.70;38.00;;;;;;5014905;28;20372;-46
2022/08/09 10:16:16;;;;;;;5.00;2.55;;;25.90;38.60;;;;;;5019586;28;20053;-46
2022/08/09 10:18:55;;;;;;;3.90;2.70;;;26.00;38.40;;;;;;5019324;28;20060;-48
2022/08/09 10:21:23;;;;;;;3.10;1.90;;;26.00;38.30;;;;;;5015609;28;20497;-46
2022/08/09 10:23:50;;;;;;;3.90;2.38;;;26.10;38.00;;;;;;5016811;28;20053;-45
2022/08/09 10:26:19;;;;;;;7.07;2.20;;;26.20;38.60;;;;;;5012857;28;20053;-47
2022/08/09 10:28:49;;;;;;;7.43;2.80;;;26.20;38.70;;;;;;4997098;28;20863;-45
2022/08/09 10:31:17;;;;;;;6.72;2.22;;;26.30;38.60;;;;;;4994472;28;20054;-46
2022/08/09 10:33:45;;;;;;;4.38;2.38;;;26.40;37.50;;;;;;4999156;28;20766;-44
2022/08/09 10:36:15;;;;;;;6.93;2.33;;;26.40;37.30;;;;;;4998950;28;20061;-46
2022/08/09 10:38:44;;;;;;;5.45;2.65;;;26.50;36.80;;;;;;4997767;28;20433;-44
2022/08/09 10:41:12;;;;;;;6.05;2.55;;;26.60;37.20;;;;;;4996265;28;20064;-47
2022/08/09 10:43:43;;;;;;;4.10;2.35;;;26.70;37.30;;;;;;4994042;28;20062;-46
2022/08/09 10:46:42;;;;;;;7.55;2.17;;;26.70;36.90;;;;;;4991441;28;20517;-44
2022/08/09 10:49:19;;;;;;;4.40;2.20;;;26.80;36.50;;;;;;5000837;28;20066;-44
2022/08/09 10:51:55;;;;;;;7.28;2.55;;;26.90;36.10;;;;;;4998208;28;20057;-47
2022/08/09 10:54:23;;;;;;;5.07;2.45;;;27.00;35.90;;;;;;5000931;28;20062;-46
2022/08/09 10:57:07;;;;;;;6.20;2.63;;;27.00;35.70;;;;;;4994638;28;20057;-48
2022/08/09 10:59:36;;;;;;;8.15;2.47;;;27.10;36.30;;;;;;4988760;28;20066;-44
2022/08/09 11:02:05;;;;;;;4.68;2.13;;;27.10;35.70;;;;;;4995676;28;20080;-44
2022/08/09 11:04:33;;;;;;;4.40;2.35;;;27.20;35.30;;;;;;4995474;28;20066;-56
2022/08/09 11:07:31;;;;;;;3.72;1.90;;;27.30;34.70;;;;;;4992789;28;22086;-53
2022/08/09 11:09:58;;;;;;;4.32;1.90;;;27.40;33.90;;;;;;4998014;28;20058;-46
2022/08/09 11:12:27;;;;;;;6.57;2.65;;;27.40;34.80;;;;;;4998912;28;20062;-47
2022/08/09 11:14:56;;;;;;;14.95;2.17;;;27.50;34.60;;;;;;5001225;28;21094;-47
2022/08/09 11:17:54;;;;;;;4.85;2.30;;;27.50;33.70;;;;;;4999474;28;20061;-46
2022/08/09 11:20:43;;;;;;;5.95;2.05;;;27.60;33.10;;;;;;4997584;28;20512;-44
2022/08/09 11:23:13;;;;;;;3.33;2.08;;;27.70;33.70;;;;;;4997166;28;20053;-45
2022/08/09 11:25:48;;;;;;;6.70;2.17;;;27.80;34.10;;;;;;5000776;28;20494;-50
2022/08/09 11:28:38;;;;;;;10.30;2.08;;;27.90;34.00;;;;;;5000424;28;20065;-46
2022/08/09 11:31:38;;;;;;;3.72;2.03;;;28.00;33.40;;;;;;4998394;28;20470;-44
2022/08/09 11:34:13;;;;;;;6.05;2.28;;;28.10;34.00;;;;;;5005585;28;20065;-44
2022/08/09 11:36:42;;;;;;;2.20;1.60;;;28.10;32.20;;;;;;5005236;28;20065;-47
2022/08/09 11:39:11;;;;;;;6.13;2.20;;;28.20;33.10;;;;;;5004291;28;20054;-49
2022/08/09 11:41:38;;;;;;;5.18;2.25;;;28.30;32.30;;;;;;5002900;28;20054;-45
2022/08/09 11:44:07;;;;;;;3.17;1.83;;;28.30;32.30;;;;;;5000907;28;20065;-49
2022/08/09 11:46:55;;;;;;;7.70;2.10;;;28.30;32.50;;;;;;5005327;28;20065;-49
2022/08/09 11:50:00;;;;;;;2.85;1.80;;;28.40;31.90;;;;;;5004693;28;20061;-46
2022/08/09 11:52:28;;;;;;;5.18;2.25;;;28.50;31.90;;;;;;4973590;28;20049;-51
2022/08/09 11:55:34;;;;;;;3.85;2.33;;;28.60;31.60;;;;;;5004607;28;20060;-47
2022/08/09 11:58:03;;;;;;;3.92;2.15;;;28.60;31.80;;;;;;4992501;28;20512;-45
2022/08/09 12:00:32;;;;;;;3.80;1.73;;;28.70;31.90;;;;;;5000326;28;20062;-43
2022/08/09 12:03:01;;;;;;;3.05;1.73;;;28.70;31.70;;;;;;5002503;28;20050;-49
2022/08/09 12:05:33;;;;;;;4.20;2.08;;;28.80;31.40;;;;;;5005399;28;20066;-46
2022/08/09 12:08:06;;;;;;;4.72;2.22;;;28.80;30.80;;;;;;5004518;28;20064;-45
2022/08/09 12:10:35;;;;;;;9.00;2.10;;;28.90;30.80;;;;;;4993859;28;20058;-49
2022/08/09 12:13:02;;;;;;;6.20;1.98;;;28.90;30.00;;;;;;5004033;28;20057;-48
2022/08/09 12:15:29;;;;;;;2.30;1.80;;;28.90;29.60;;;;;;5004746;28;20058;-49
2022/08/09 12:17:56;;;;;;;4.30;2.00;;;29.00;30.40;;;;;;5001663;28;20057;-45
2022/08/09 12:20:25;;;;;;;4.15;1.50;;;29.10;30.20;;;;;;5001137;28;20384;-47
2022/08/09 12:22:55;;;;;;;5.03;1.80;;;29.20;30.00;;;;;;5002471;28;20053;-55
2022/08/09 12:25:23;;;;;;;4.25;1.65;;;29.20;30.30;;;;;;5004485;28;20407;-44
2022/08/09 12:28:10;;;;;;;2.25;1.40;;;29.30;30.60;;;;;;5002104;28;20517;-46
2022/08/09 12:30:38;;;;;;;2.95;1.70;;;29.40;30.60;;;;;;4998942;28;20069;-45
2022/08/09 12:33:05;;;;;;;3.17;1.63;;;29.40;30.90;;;;;;5004675;28;20066;-47
2022/08/09 12:35:32;;;;;;;8.00;2.03;;;29.50;31.00;;;;;;5004143;28;20054;-54
2022/08/09 12:37:59;;;;;;;5.97;2.22;;;29.50;29.30;;;;;;5004612;28;20421;-46
2022/08/09 12:40:27;;;;;;;5.50;2.10;;;29.50;29.40;;;;;;4998964;28;20068;-53
2022/08/09 12:42:55;;;;;;;5.38;1.90;;;29.50;28.80;;;;;;5001112;28;20498;-54
2022/08/09 12:45:24;;;;;;;4.00;1.70;;;29.60;29.40;;;;;;5001180;28;20056;-46
2022/08/09 12:47:53;;;;;;;1.77;1.58;;;29.70;29.60;;;;;;4994582;28;20053;-44
2022/08/09 12:50:21;;;;;;;9.45;1.92;;;29.80;30.00;;;;;;4999114;28;20413;-45
2022/08/09 12:52:50;;;;;;;3.38;1.60;;;29.80;28.80;;;;;;5004148;28;20068;-44
2022/08/09 12:55:25;;;;;;;1.98;1.30;;;29.90;29.40;;;;;;5003352;28;20062;-46
2022/08/09 12:57:53;;;;;;;2.25;1.55;;;30.00;29.00;;;;;;4997148;28;20057;-51
2022/08/09 13:00:22;;;;;;;5.00;1.77;;;30.00;29.20;;;;;;4997372;28;20053;-47